Time;durP1;ratioP1;P1;durP2;ratioP2;P2;SDS_P1;SDS_P2;PMS_P1;PMS_P2;Temp;Humidity;BMP_temperature;BMP_pressure;BME280_temperature;BME280_humidity;BME280_pressure;Samples;Min_cycle;Max_cycle;Signal;HPM_P1;HPM_P2
2023/06/27 00:02:02;;;;;;;;;;;;;;;25.38;51.44;100566.91;4966726;28;20050;-85
2023/06/27 00:04:56;;;;;;;9.27;4.55;;;;;;;25.21;52.37;100556.78;4972484;28;19914;-85
2023/06/27 00:07:48;;;;;;;8.88;4.70;;;;;;;25.27;52.25;100555.13;4967737;28;20042;-85
2023/06/27 00:10:43;;;;;;;7.35;4.38;;;;;;;25.19;52.43;100555.66;4940361;28;20041;-85
2023/06/27 00:13:40;;;;;;;7.28;4.85;;;;;;;25.10;52.82;100547.78;4973872;28;20050;-85
2023/06/27 00:16:38;;;;;;;13.70;4.72;;;;;;;25.34;52.82;100552.25;4964089;28;20058;-85
2023/06/27 00:19:33;;;;;;;11.55;5.25;;;;;;;25.53;52.20;100550.75;4983475;28;20414;-87
2023/06/27 00:22:27;;;;;;;6.40;4.50;;;;;;;25.34;53.17;100557.03;4980317;28;20430;-85
2023/06/27 00:25:19;;;;;;;11.73;4.63;;;;;;;25.16;53.12;100560.03;4996727;28;20049;-85
2023/06/27 00:28:14;;;;;;;10.88;4.70;;;;;;;25.13;53.17;100563.66;4974654;28;20034;-85
2023/06/27 00:31:06;;;;;;;;;;;;;;;25.12;53.02;100559.31;4966294;28;20047;-85
2023/06/27 00:34:01;;;;;;;8.65;4.15;;;;;;;25.23;53.17;100559.16;4970482;28;20297;-85
2023/06/27 00:36:58;;;;;;;;;;;;;;;25.26;53.15;100561.88;4981836;28;20150;-85
2023/06/27 00:39:55;;;;;;;10.90;4.45;;;;;;;25.27;52.52;100569.03;4965718;28;19922;-85
2023/06/27 00:42:51;;;;;;;16.58;4.85;;;;;;;25.49;52.54;100575.88;4982101;28;20058;-85
2023/06/27 00:45:43;;;;;;;;;;;;;;;25.48;52.16;100567.94;4966354;28;20058;-85
2023/06/27 00:48:39;;;;;;;11.27;4.57;;;;;;;25.56;52.05;100563.88;4968494;28;19914;-84
2023/06/27 00:51:33;;;;;;;7.18;4.72;;;;;;;25.70;51.69;100571.22;4967855;28;20034;-84
2023/06/27 00:54:25;;;;;;;;;;;;;;;25.73;51.56;100567.59;4978792;28;20050;-84
2023/06/27 00:57:20;;;;;;;8.85;4.40;;;;;;;25.49;51.51;100555.59;4954567;28;19913;-84
2023/06/27 01:00:14;;;;;;;12.27;3.80;;;;;;;25.46;51.87;100548.88;4969348;28;20050;-84
2023/06/27 01:03:10;;;;;;;7.90;4.03;;;;;;;25.47;51.38;100544.09;4969034;28;20046;-84
2023/06/27 01:06:03;;;;;;;;;;;;;;;25.37;50.41;100547.81;4978357;28;20050;-84
2023/06/27 01:09:02;;;;;;;6.47;4.38;;;;;;;25.08;50.79;100545.44;4964981;28;19914;-84
2023/06/27 01:12:04;;;;;;;18.23;4.25;;;;;;;24.92;52.66;100547.25;4946193;29;20046;-84
2023/06/27 01:15:00;;;;;;;13.60;4.40;;;;;;;25.21;51.84;100548.44;4945090;29;20054;-84
2023/06/27 01:17:55;;;;;;;14.15;4.22;;;;;;;25.38;51.44;100547.41;4974594;28;20058;-84
2023/06/27 01:20:50;;;;;;;10.63;4.57;;;;;;;25.48;51.35;100546.47;4962744;28;20047;-84
2023/06/27 01:24:00;;;;;;;8.85;3.83;;;;;;;25.49;51.19;100547.25;4960854;28;20042;-84
2023/06/27 01:26:55;;;;;;;15.07;4.93;;;;;;;25.52;50.37;100544.41;4964572;28;20049;-84
2023/06/27 01:29:47;;;;;;;;;;;;;;;25.53;50.61;100545.97;4964737;28;20039;-84
2023/06/27 01:32:47;;;;;;;8.90;3.97;;;;;;;25.57;50.36;100536.81;4967737;28;19914;-85
2023/06/27 01:36:04;;;;;;;7.63;3.65;;;;;;;25.55;50.29;100538.00;4947675;28;20529;-84
2023/06/27 01:39:04;;;;;;;9.55;3.25;;;;;;;25.64;49.87;100545.84;4969551;28;20053;-84
2023/06/27 01:42:01;;;;;;;9.55;3.05;;;;;;;25.61;49.98;100534.75;4978494;28;20413;-85
2023/06/27 01:44:54;;;;;;;7.53;3.97;;;;;;;25.58;49.75;100533.59;4982758;28;20522;-85
2023/06/27 01:47:46;;;;;;;9.02;3.83;;;;;;;25.61;50.07;100531.97;4978706;28;20046;-85
2023/06/27 01:50:41;;;;;;;9.98;4.18;;;;;;;25.39;49.41;100521.16;4963813;28;20058;-85
2023/06/27 01:53:33;;;;;;;;;;;;;;;25.31;50.28;100524.44;4964346;28;20073;-85
2023/06/27 01:56:28;;;;;;;7.70;4.32;;;;;;;25.28;49.64;100526.06;4964300;28;19914;-85
2023/06/27 01:59:22;;;;;;;8.50;4.20;;;;;;;25.04;50.09;100521.66;4962547;28;20054;-85
2023/06/27 02:02:14;;;;;;;;;;;;;;;25.04;50.23;100510.53;4961266;28;20057;-86
2023/06/27 02:05:09;;;;;;;8.57;3.80;;;;;;;24.99;50.79;100505.44;4959124;28;19914;-86
2023/06/27 02:07:58;;;;;;;;;;;;;;;24.97;50.93;100500.28;4959110;28;20049;-86
2023/06/27 02:10:50;;;;;;;5.07;3.63;;;;;;;24.93;51.38;100493.97;4963646;28;19914;-85
2023/06/27 02:13:45;;;;;;;6.50;4.35;;;;;;;24.84;51.97;100498.44;4977149;28;20405;-86
2023/06/27 02:16:40;;;;;;;7.50;3.80;;;;;;;25.10;51.52;100508.81;4966439;28;20054;-85
2023/06/27 02:19:32;;;;;;;;;;;;;;;25.14;51.27;100499.22;4995662;28;20054;-84
2023/06/27 02:22:26;;;;;;;8.23;4.18;;;;;;;25.19;51.24;100494.41;4967180;28;20530;-84
2023/06/27 02:25:19;;;;;;;;;;;;;;;25.17;51.64;100499.59;4955414;28;20422;-85
2023/06/27 02:28:13;;;;;;;9.80;4.18;;;;;;;25.08;51.58;100494.56;4936559;28;19914;-85
2023/06/27 02:31:07;;;;;;;9.68;4.10;;;;;;;25.01;51.21;100489.88;4950658;28;20061;-85
2023/06/27 02:33:59;;;;;;;;;;;;;;;24.93;51.12;100487.63;4974559;28;20058;-86
2023/06/27 02:36:57;;;;;;;10.02;3.78;;;;;;;24.98;51.14;100489.94;4964927;28;19914;-86
2023/06/27 02:39:52;;;;;;;5.97;3.85;;;;;;;24.94;51.09;100486.41;4970108;28;20054;-86
2023/06/27 02:42:46;;;;;;;6.15;3.80;;;;;;;24.83;51.70;100477.38;4967608;28;20046;-86
2023/06/27 02:45:41;;;;;;;7.88;4.45;;;;;;;24.86;51.84;100482.09;4980983;28;20046;-86
2023/06/27 02:48:36;;;;;;;8.35;4.05;;;;;;;25.00;51.66;100479.16;4968533;28;20046;-86
2023/06/27 02:51:30;;;;;;;18.42;4.28;;;;;;;25.09;50.91;100482.22;4952980;28;20050;-86
2023/06/27 02:54:23;;;;;;;;;;;;;;;24.94;52.10;100491.97;4974369;28;20678;-84
2023/06/27 02:57:17;;;;;;;14.80;4.43;;;;;;;24.81;52.15;100488.13;4948133;29;20483;-84
2023/06/27 03:00:10;;;;;;;9.93;4.32;;;;;;;24.71;52.23;100487.84;4996053;28;20043;-84
2023/06/27 03:03:05;;;;;;;7.20;4.80;;;;;;;24.60;53.02;100487.19;4968269;28;20062;-85
2023/06/27 03:06:02;;;;;;;10.80;5.13;;;;;;;24.44;53.16;100492.56;4966567;28;20050;-85
2023/06/27 03:08:58;;;;;;;7.07;4.18;;;;;;;24.40;52.71;100489.03;4968036;28;20042;-86
2023/06/27 03:11:52;;;;;;;7.28;4.00;;;;;;;24.26;53.59;100484.44;4966912;28;20046;-86
2023/06/27 03:14:48;;;;;;;12.48;4.78;;;;;;;24.32;53.04;100487.56;4957414;28;20050;-84
2023/06/27 03:17:39;;;;;;;7.25;4.45;;;;;;;24.24;53.25;100481.25;4936751;29;20035;-83
2023/06/27 03:20:34;;;;;;;6.05;4.07;;;;;;;24.45;53.31;100485.00;4949005;29;20047;-85
2023/06/27 03:23:27;;;;;;;8.95;4.13;;;;;;;24.59;52.98;100487.59;4969187;28;20414;-85
2023/06/27 03:26:23;;;;;;;9.55;3.83;;;;;;;24.63;52.85;100489.16;4959924;28;20069;-84
2023/06/27 03:29:18;;;;;;;7.32;4.35;;;;;;;24.67;52.69;100481.56;4978336;28;20050;-85
2023/06/27 03:32:13;;;;;;;6.82;4.68;;;;;;;24.35;53.17;100480.34;4955125;28;20053;-86
2023/06/27 03:35:05;;;;;;;;;;;;;;;24.61;52.99;100488.00;4969476;28;20042;-84
2023/06/27 03:37:57;;;;;;;9.88;4.80;;;;;;;24.43;53.39;100493.75;4958319;28;19914;-88
2023/06/27 03:40:49;;;;;;;5.45;3.92;;;;;;;24.62;53.31;100489.56;4951092;28;20058;-85
2023/06/27 03:43:45;;;;;;;11.35;4.40;;;;;;;24.80;52.88;100486.56;4960333;28;20050;-87
2023/06/27 03:46:39;;;;;;;6.88;4.30;;;;;;;24.79;52.35;100488.53;4969957;28;20042;-88
2023/06/27 03:49:34;;;;;;;6.93;3.72;;;;;;;24.87;52.31;100481.72;5004982;23;20057;-88
2023/06/27 03:52:26;;;;;;;5.78;3.65;;;;;;;24.95;52.12;100482.41;4972066;28;20061;-88
2023/06/27 03:55:21;;;;;;;7.15;4.05;;;;;;;25.04;51.56;100485.47;4982993;28;20053;-87
2023/06/27 03:58:16;;;;;;;9.73;4.15;;;;;;;25.12;51.35;100486.94;4985376;28;20049;-87
2023/06/27 04:01:10;;;;;;;9.38;4.07;;;;;;;25.16;51.28;100482.09;4976568;28;20045;-89
2023/06/27 04:04:02;;;;;;;6.90;3.28;;;;;;;25.21;51.05;100484.41;4989869;28;20532;-89
2023/06/27 04:06:58;;;;;;;8.70;4.55;;;;;;;25.11;50.91;100482.56;4966217;28;20413;-89
2023/06/27 04:09:52;;;;;;;6.20;3.60;;;;;;;25.20;50.40;100482.84;4995768;28;20066;-90
2023/06/27 04:12:42;;;;;;;;;;;;;;;25.01;50.99;100484.31;5004448;28;20057;-89
2023/06/27 04:15:39;;;;;;;6.57;3.85;;;;;;;24.91;50.42;100487.22;4992468;28;19922;-87
2023/06/27 04:18:34;;;;;;;6.65;3.80;;;;;;;25.09;50.56;100485.78;5000193;28;20045;-89
2023/06/27 04:21:21;;;;;;;;;;;;;;;25.07;50.80;100485.41;4999341;28;20041;-89
2023/06/27 04:24:17;;;;;;;16.10;4.85;;;;;;;25.07;50.81;100492.97;4984306;28;19918;-89
2023/06/27 04:27:11;;;;;;;5.55;3.83;;;;;;;25.13;51.08;100483.75;4988183;28;20065;-89
2023/06/27 04:30:06;;;;;;;8.77;4.15;;;;;;;25.30;50.49;100487.44;4984007;28;20050;-89
2023/06/27 04:33:01;;;;;;;8.82;4.32;;;;;;;25.38;50.37;100485.34;4982222;28;20540;-89
2023/06/27 04:35:55;;;;;;;6.57;4.18;;;;;;;25.45;50.04;100497.16;4981474;28;20041;-89
2023/06/27 04:38:50;;;;;;;5.47;3.33;;;;;;;25.48;49.69;100496.34;4988859;28;20061;-89
2023/06/27 04:41:42;;;;;;;;;;;;;;;25.43;50.01;100499.59;4976344;28;20057;-89
2023/06/27 04:44:37;;;;;;;6.50;3.63;;;;;;;25.53;50.04;100498.63;4978778;28;19918;-88
2023/06/27 04:47:29;;;;;;;10.57;4.07;;;;;;;25.67;49.73;100494.06;4987875;28;20041;-89
2023/06/27 04:50:23;;;;;;;12.07;4.38;;;;;;;25.76;49.44;100499.88;4980325;28;20038;-86
2023/06/27 04:53:17;;;;;;;11.35;3.67;;;;;;;25.83;48.92;100494.97;4987637;28;20038;-91
2023/06/27 04:56:10;;;;;;;12.13;3.83;;;;;;;25.81;49.67;100497.41;4983599;28;20536;-89
2023/06/27 04:59:05;;;;;;;14.70;3.95;;;;;;;25.76;49.93;100497.09;4984533;28;20038;-91
2023/06/27 05:01:59;;;;;;;7.55;4.18;;;;;;;25.80;49.98;100503.41;4983356;28;20042;-92
2023/06/27 05:04:51;;;;;;;10.70;3.63;;;;;;;25.89;50.10;100495.28;4979826;28;20050;-91
2023/06/27 05:07:44;;;;;;;19.27;3.72;;;;;;;26.07;49.91;100497.75;4994143;28;20068;-92
2023/06/27 05:10:36;;;;;;;16.35;4.00;;;;;;;26.21;49.55;100494.72;4980282;28;20042;-91
2023/06/27 05:13:40;;;;;;;15.25;4.25;;;;;;;26.34;48.82;100496.47;4976420;28;20047;-90
2023/06/27 05:16:35;;;;;;;15.67;3.83;;;;;;;26.46;48.58;100499.84;4999013;28;20049;-90
2023/06/27 05:19:27;;;;;;;;;;;;;;;26.48;48.87;100505.75;4993001;28;20289;-90
2023/06/27 05:22:22;;;;;;;6.60;3.25;;;;;;;26.48;48.81;100497.38;4989349;28;19914;-90
2023/06/27 05:25:16;;;;;;;15.65;4.20;;;;;;;26.54;48.55;100498.47;5002291;28;20049;-90
2023/06/27 05:28:08;;;;;;;9.30;4.22;;;;;;;26.58;48.32;100501.97;4998840;28;20049;-92
2023/06/27 05:31:03;;;;;;;10.43;4.07;;;;;;;26.73;47.80;100497.66;4990601;28;20037;-92
2023/06/27 05:33:52;;;;;;;;;;;;;;;26.83;47.52;100491.06;4983918;28;20057;-93
2023/06/27 05:36:46;;;;;;;11.88;4.00;;;;;;;26.93;47.38;100489.28;5003730;28;19922;-91
2023/06/27 05:39:40;;;;;;;19.92;4.80;;;;;;;27.03;46.91;100502.22;4976910;28;20038;-92
2023/06/27 05:42:35;;;;;;;19.98;5.15;;;;;;;27.13;46.78;100499.19;5004431;28;20045;-90
2023/06/27 05:45:30;;;;;;;19.83;5.82;;;;;;;27.23;46.63;100498.16;4982773;28;20066;-91
2023/06/27 05:48:22;;;;;;;;;;;;;;;27.35;46.37;100498.72;4988593;28;20059;-93
2023/06/27 05:51:18;;;;;;;19.50;5.22;;;;;;;27.45;46.15;100501.25;4988402;28;19914;-91
2023/06/27 05:54:13;;;;;;;25.33;6.05;;;;;;;27.47;45.78;100498.81;4972785;28;20043;-90
2023/06/27 05:57:05;;;;;;;;;;;;;;;27.61;45.33;100494.91;4970997;28;20041;-90
2023/06/27 06:00:00;;;;;;;17.52;4.55;;;;;;;27.56;45.56;100492.63;4986867;28;19918;-91
2023/06/27 06:02:54;;;;;;;15.90;4.28;;;;;;;27.60;45.47;100496.91;4982673;28;20122;-92
2023/06/27 06:05:46;;;;;;;;;;;;;;;27.62;44.89;100493.69;4972462;28;20513;-91
2023/06/27 06:08:41;;;;;;;21.73;5.57;;;;;;;27.61;45.12;100494.91;4959643;28;19914;-90
2023/06/27 06:11:34;;;;;;;9.40;4.07;;;;;;;27.70;44.86;100494.28;4975015;28;20043;-90
2023/06/27 06:14:28;;;;;;;8.88;4.63;;;;;;;27.78;44.85;100496.47;4975633;28;20049;-91
2023/06/27 06:17:18;;;;;;;;;;;;;;;27.81;44.54;100490.00;4992505;28;20049;-90
2023/06/27 06:20:13;;;;;;;11.60;4.35;;;;;;;27.96;44.28;100487.63;4973960;28;19918;-91
2023/06/27 06:23:08;;;;;;;16.67;4.47;;;;;;;28.22;43.43;100488.56;4991102;28;20047;-90
2023/06/27 06:26:00;;;;;;;10.30;4.18;;;;;;;28.56;40.87;100488.78;4987457;28;20044;-88
2023/06/27 06:28:55;;;;;;;15.52;4.35;;;;;;;28.81;41.36;100493.66;4986075;28;20041;-86
2023/06/27 06:31:49;;;;;;;11.82;4.20;;;;;;;28.83;40.98;100486.41;4981564;28;20515;-87
2023/06/27 06:34:44;;;;;;;10.20;4.32;;;;;;;28.62;42.47;100497.41;4982450;28;20045;-88
2023/06/27 06:37:39;;;;;;;8.80;3.90;;;;;;;28.66;42.02;100501.69;4989088;28;20039;-87
2023/06/27 06:40:30;;;;;;;;;;;;;;;28.72;41.43;100499.94;4983264;28;20045;-89
2023/06/27 06:43:27;;;;;;;9.98;4.32;;;;;;;28.77;42.96;100493.78;4983520;28;19914;-87
2023/06/27 06:46:22;;;;;;;16.88;4.53;;;;;;;28.56;42.62;100502.78;5004451;28;20049;-84
2023/06/27 06:49:16;;;;;;;11.05;4.68;;;;;;;28.87;43.08;100506.69;4987011;28;20038;-85
2023/06/27 06:52:09;;;;;;;7.85;4.53;;;;;;;28.50;43.08;100508.13;4984205;28;20516;-86
2023/06/27 06:55:03;;;;;;;11.10;5.03;;;;;;;29.08;42.09;100510.06;4996507;28;20057;-83
2023/06/27 06:57:55;;;;;;;;;;;;;;;29.09;41.82;100511.63;4983423;28;20039;-86
2023/06/27 07:00:50;;;;;;;23.75;7.28;;;;;;;29.22;41.19;100506.81;4980848;28;19918;-86
2023/06/27 07:03:41;;;;;;;;;;;;;;;28.88;42.31;100499.84;4978993;28;20058;-88
2023/06/27 07:06:36;;;;;;;124.93;11.00;;;;;;;29.33;40.80;100496.88;4969991;28;19914;-87
2023/06/27 07:09:28;;;;;;;;;;;;;;;29.80;38.71;100503.78;4971230;28;20043;-87
2023/06/27 07:12:22;;;;;;;16.67;4.68;;;;;;;30.38;37.86;100506.94;4970567;28;19914;-87
2023/06/27 07:15:17;;;;;;;20.50;4.32;;;;;;;30.44;35.95;100508.72;4964717;28;20046;-87
2023/06/27 07:18:12;;;;;;;9.57;4.15;;;;;;;29.91;39.06;100518.25;4962067;28;20042;-88
2023/06/27 07:21:06;;;;;;;20.90;4.45;;;;;;;30.01;39.17;100515.09;4977666;28;20054;-86
2023/06/27 07:24:01;;;;;;;15.00;4.38;;;;;;;29.69;39.86;100506.94;4952231;28;20422;-82
2023/06/27 07:26:55;;;;;;;17.00;4.65;;;;;;;29.97;39.62;100511.59;4966798;28;20038;-86
2023/06/27 07:29:50;;;;;;;12.73;4.28;;;;;;;30.08;39.67;100512.00;4981243;28;20038;-87
2023/06/27 07:32:45;;;;;;;15.32;4.68;;;;;;;30.45;38.12;100515.91;4952351;28;20035;-84
2023/06/27 07:35:39;;;;;;;48.85;7.03;;;;;;;30.61;39.09;100508.56;4957167;28;20054;-87
2023/06/27 07:38:34;;;;;;;23.08;5.30;;;;;;;30.56;38.78;100507.91;4972186;28;20043;-85
2023/06/27 07:41:28;;;;;;;30.27;6.75;;;;;;;30.62;37.83;100512.94;4957121;28;20047;-85
2023/06/27 07:44:20;;;;;;;;;;;;;;;30.32;38.85;100503.19;4947599;29;20035;-85
2023/06/27 07:47:15;;;;;;;19.27;5.82;;;;;;;30.13;39.08;100519.84;4971459;28;20321;-85
2023/06/27 07:50:07;;;;;;;18.23;4.72;;;;;;;30.56;37.22;100519.16;4967495;28;20042;-86
2023/06/27 07:52:56;;;;;;;8.73;4.47;;;;;;;31.00;37.44;100516.28;4960158;28;20039;-86
2023/06/27 07:55:51;;;;;;;8.98;4.30;;;;;;;31.41;35.89;100527.13;4977049;28;20070;-85
2023/06/27 07:58:43;;;;;;;14.80;4.05;;;;;;;31.06;36.39;100520.09;4980872;28;20417;-86
2023/06/27 08:01:37;;;;;;;16.67;4.50;;;;;;;31.78;35.05;100525.22;4978126;28;20050;-84
2023/06/27 08:04:32;;;;;;;11.65;4.40;;;;;;;32.77;33.90;100519.31;4960066;28;20046;-85
2023/06/27 08:07:27;;;;;;;13.57;4.20;;;;;;;33.22;32.97;100518.44;4962408;28;20043;-83
2023/06/27 08:10:21;;;;;;;12.65;4.05;;;;;;;33.17;34.20;100516.28;4963554;28;20076;-80
2023/06/27 08:13:16;;;;;;;6.20;4.32;;;;;;;32.51;34.86;100524.53;4947679;28;20398;-81
2023/06/27 08:16:08;;;;;;;26.23;6.15;;;;;;;31.32;37.05;100513.03;4979314;28;20053;-84
2023/06/27 08:19:02;;;;;;;56.58;13.52;;;;;;;30.65;38.80;100506.41;4964834;28;20054;-85
2023/06/27 08:21:57;;;;;;;13.13;5.35;;;;;;;30.46;38.79;100503.47;4954063;28;20421;-85
2023/06/27 08:24:52;;;;;;;70.22;8.65;;;;;;;30.32;39.29;100503.97;4944691;28;20054;-84
2023/06/27 08:27:47;;;;;;;8.63;5.00;;;;;;;30.24;39.89;100505.44;4968438;28;20043;-85
2023/06/27 08:30:41;;;;;;;25.42;5.80;;;;;;;30.09;41.32;100495.97;4945941;29;20046;-84
2023/06/27 08:33:36;;;;;;;30.80;9.75;;;;;;;30.14;39.70;100501.78;4957940;28;20043;-85
2023/06/27 08:36:30;;;;;;;7.38;4.20;;;;;;;30.07;42.05;100492.84;4947652;29;20123;-85
2023/06/27 08:39:25;;;;;;;14.15;4.80;;;;;;;30.10;41.74;100498.31;4957406;28;20050;-84
2023/06/27 08:42:17;;;;;;;15.52;4.53;;;;;;;30.08;40.41;100495.19;4974573;28;20046;-82
2023/06/27 08:45:11;;;;;;;14.38;4.88;;;;;;;30.03;39.73;100487.34;4951515;28;20042;-85
2023/06/27 08:48:07;;;;;;;12.50;4.70;;;;;;;30.04;41.15;100493.75;4963599;28;20038;-85
2023/06/27 08:51:04;;;;;;;12.48;4.30;;;;;;;30.06;40.63;100494.09;4961243;28;20041;-84
2023/06/27 08:54:01;;;;;;;29.08;4.53;;;;;;;30.21;40.46;100483.13;4962033;28;20054;-85
2023/06/27 08:56:57;;;;;;;20.77;4.97;;;;;;;30.04;40.50;100480.50;4980833;28;20046;-84
2023/06/27 08:59:54;;;;;;;10.20;4.45;;;;;;;30.15;39.47;100478.09;4976012;28;20043;-84
2023/06/27 09:02:48;;;;;;;6.40;3.85;;;;;;;30.26;38.72;100476.94;4976265;28;20042;-85
2023/06/27 09:05:42;;;;;;;12.20;4.72;;;;;;;30.34;38.98;100473.41;4965930;28;20101;-85
2023/06/27 09:08:35;;;;;;;8.98;4.80;;;;;;;30.49;37.10;100471.69;4976285;28;20046;-83
2023/06/27 09:11:29;;;;;;;14.75;4.35;;;;;;;30.33;36.33;100473.84;4953737;28;20050;-85
2023/06/27 09:14:21;;;;;;;19.23;4.60;;;;;;;30.35;37.72;100474.97;4974717;28;20034;-85
2023/06/27 09:17:13;;;;;;;11.30;4.35;;;;;;;30.52;37.21;100479.19;4975894;28;20297;-83
2023/06/27 09:20:07;;;;;;;9.25;4.18;;;;;;;30.40;36.12;100471.59;4974602;28;20039;-85
2023/06/27 09:23:03;;;;;;;8.63;4.63;;;;;;;30.39;36.04;100472.81;4962978;28;20054;-84
2023/06/27 09:26:12;;;;;;;7.00;4.10;;;;;;;30.56;37.21;100479.06;4974487;28;20050;-83
2023/06/27 09:29:07;;;;;;;10.98;4.72;;;;;;;30.55;37.73;100469.84;4963761;28;20053;-85
2023/06/27 09:32:07;;;;;;;7.30;4.03;;;;;;;30.57;37.58;100472.22;4961641;28;20045;-83
2023/06/27 09:35:04;;;;;;;9.95;3.97;;;;;;;30.66;36.62;100465.84;4974688;28;20053;-84
2023/06/27 09:37:53;;;;;;;;;;;;;;;30.73;36.95;100463.53;4976175;28;20049;-83
2023/06/27 09:40:48;;;;;;;8.32;4.45;;;;;;;30.83;37.15;100470.78;4960557;28;20292;-84
2023/06/27 09:43:40;;;;;;;7.30;3.85;;;;;;;30.78;36.63;100470.63;4973760;28;20115;-84
2023/06/27 09:46:35;;;;;;;9.10;4.63;;;;;;;30.85;35.60;100471.09;4974484;28;20049;-85
2023/06/27 09:49:32;;;;;;;15.38;4.22;;;;;;;30.90;36.44;100467.69;5002269;23;20098;-86
2023/06/27 09:52:24;;;;;;;5.97;4.28;;;;;;;30.91;35.26;100476.91;4966166;28;20054;-86
2023/06/27 09:55:25;;;;;;;6.65;3.92;;;;;;;30.74;34.50;100464.31;4963840;28;20418;-88
2023/06/27 09:58:29;;;;;;;10.73;4.22;;;;;;;30.63;36.69;100469.59;4976520;28;20050;-88
2023/06/27 10:01:24;;;;;;;13.77;4.87;;;;;;;30.57;38.26;100473.00;4963310;28;20035;-86
2023/06/27 10:04:17;;;;;;;7.50;4.22;;;;;;;30.67;38.66;100475.84;4954619;28;20050;-87
2023/06/27 10:07:09;;;;;;;10.60;4.38;;;;;;;30.73;37.90;100459.97;4953012;28;20102;-87
2023/06/27 10:09:56;;;;;;;6.28;4.32;;;;;;;30.81;37.13;100466.88;4963621;28;20046;-88
2023/06/27 10:12:48;;;;;;;5.90;4.15;;;;;;;30.92;38.73;100462.41;4969005;28;20054;-87
2023/06/27 10:15:43;;;;;;;10.57;4.95;;;;;;;30.97;38.71;100458.22;4968666;28;20054;-87
2023/06/27 10:18:33;;;;;;;10.75;4.47;;;;;;;30.97;36.63;100458.22;4997022;28;20042;-88
2023/06/27 10:21:29;;;;;;;13.80;5.55;;;;;;;31.07;37.34;100451.44;4977833;28;20418;-87
2023/06/27 10:24:27;;;;;;;6.53;4.47;;;;;;;31.10;36.80;100450.50;4986996;28;20060;-89
2023/06/27 10:27:26;;;;;;;8.65;4.78;;;;;;;31.15;35.45;100443.47;4983578;28;20413;-87
2023/06/27 10:30:29;;;;;;;5.85;4.10;;;;;;;31.14;35.36;100434.25;4979064;28;20045;-88
2023/06/27 10:33:31;;;;;;;4.43;3.42;;;;;;;31.06;34.25;100438.63;5005046;28;20048;-88
2023/06/27 10:36:26;;;;;;;8.90;3.95;;;;;;;31.23;34.61;100439.94;5009632;28;20528;-87
2023/06/27 10:39:54;;;;;;;6.05;3.97;;;;;;;31.23;34.15;100433.53;4998716;28;20045;-88
2023/06/27 10:42:53;;;;;;;64.22;6.55;;;;;;;31.19;33.58;100433.66;4983280;28;20050;-88
2023/06/27 10:46:08;;;;;;;12.57;3.80;;;;;;;31.22;34.42;100435.56;4992372;28;20038;-88
2023/06/27 10:49:06;;;;;;;13.45;4.53;;;;;;;31.31;34.46;100421.53;4999043;28;20038;-88
2023/06/27 10:52:06;;;;;;;13.02;3.58;;;;;;;31.56;34.05;100416.88;4978835;28;20050;-87
2023/06/27 10:55:18;;;;;;;6.90;4.40;;;;;;;31.49;35.41;100409.53;4946112;29;20058;-88
2023/06/27 10:58:15;;;;;;;23.55;4.90;;;;;;;31.70;34.98;100411.44;4967881;28;20508;-86
2023/06/27 11:01:10;;;;;;;10.50;4.47;;;;;;;31.72;34.46;100411.78;4949479;29;20040;-88
2023/06/27 11:04:17;;;;;;;5.72;3.90;;;;;;;31.77;34.53;100413.19;4967479;28;20054;-88
2023/06/27 11:07:16;;;;;;;115.78;10.48;;;;;;;31.69;36.46;100411.94;4938566;29;20038;-87
2023/06/27 11:10:29;;;;;;;10.13;5.53;;;;;;;31.84;36.32;100407.25;4947122;29;20034;-85
2023/06/27 11:13:31;;;;;;;9.07;5.40;;;;;;;31.91;35.95;100412.56;4952689;28;20051;-85
2023/06/27 11:16:28;;;;;;;15.45;3.85;;;;;;;31.87;36.33;100397.88;4959670;29;20046;-86
2023/06/27 11:19:23;;;;;;;7.32;4.40;;;;;;;31.84;35.46;100401.63;4951842;28;20043;-87
2023/06/27 11:22:15;;;;;;;13.50;3.92;;;;;;;31.86;34.91;100393.50;4961453;29;20046;-87
2023/06/27 11:25:20;;;;;;;8.85;4.43;;;;;;;31.91;33.64;100392.06;4953462;28;20047;-87
2023/06/27 11:28:15;;;;;;;8.60;4.47;;;;;;;31.95;34.44;100382.22;4959653;29;20050;-87
2023/06/27 11:31:07;;;;;;;8.63;4.10;;;;;;;31.98;34.04;100378.50;4958657;28;20042;-88
2023/06/27 11:34:02;;;;;;;10.20;4.10;;;;;;;32.16;33.21;100372.84;4953300;28;20058;-86
2023/06/27 11:36:57;;;;;;;6.53;3.83;;;;;;;32.14;33.39;100375.38;4974090;28;20049;-88
2023/06/27 11:40:06;;;;;;;11.77;4.32;;;;;;;32.30;33.55;100371.44;4962466;28;20050;-87
2023/06/27 11:43:07;;;;;;;31.08;4.68;;;;;;;32.53;33.13;100373.53;4960723;28;20047;-88
2023/06/27 11:46:02;;;;;;;8.93;4.32;;;;;;;32.53;32.55;100353.81;4965977;28;20051;-86
2023/06/27 11:48:51;;;;;;;5.72;3.97;;;;;;;32.51;32.80;100349.94;4969849;28;20111;-87
2023/06/27 11:51:46;;;;;;;7.15;3.90;;;;;;;32.56;32.91;100352.13;4964489;28;20045;-87
2023/06/27 11:54:49;;;;;;;19.40;4.35;;;;;;;32.57;32.37;100345.97;4975137;28;20045;-87
2023/06/27 11:57:45;;;;;;;11.87;4.37;;;;;;;32.69;32.85;100341.44;4968715;28;20042;-88
2023/06/27 12:00:40;;;;;;;6.88;3.40;;;;;;;32.61;32.07;100326.13;4966072;28;20282;-87
2023/06/27 12:03:35;;;;;;;5.15;3.70;;;;;;;32.76;31.38;100332.66;4968733;28;20049;-86
2023/06/27 12:06:32;;;;;;;4.65;3.35;;;;;;;32.80;31.16;100330.44;4966834;28;20058;-87
2023/06/27 12:09:28;;;;;;;6.18;3.60;;;;;;;32.94;33.00;100323.31;4950997;28;20069;-86
2023/06/27 12:12:20;;;;;;;9.93;4.40;;;;;;;32.87;31.95;100318.78;4966036;28;20042;-87
2023/06/27 12:15:13;;;;;;;11.38;3.55;;;;;;;32.84;31.54;100311.31;4952240;28;20050;-87
2023/06/27 12:18:08;;;;;;;10.38;5.15;;;;;;;32.87;32.01;100310.34;4978513;28;20046;-88
2023/06/27 12:21:04;;;;;;;12.82;3.83;;;;;;;32.95;31.47;100305.94;4951557;28;20039;-86
2023/06/27 12:23:58;;;;;;;9.30;3.20;;;;;;;32.98;31.58;100307.78;4978144;28;20046;-88
2023/06/27 12:26:53;;;;;;;5.28;3.45;;;;;;;32.97;31.86;100297.75;4976087;28;20045;-88
2023/06/27 12:29:45;;;;;;;9.85;3.90;;;;;;;32.87;32.46;100301.88;4960599;28;20045;-88
2023/06/27 12:32:37;;;;;;;8.48;3.15;;;;;;;32.80;32.39;100295.84;4968722;28;20061;-88
2023/06/27 12:35:31;;;;;;;10.20;3.80;;;;;;;32.85;33.99;100290.34;4956508;28;20049;-87
2023/06/27 12:38:26;;;;;;;6.80;3.83;;;;;;;32.79;33.69;100289.44;4978027;28;20058;-88
2023/06/27 12:41:24;;;;;;;13.60;4.20;;;;;;;32.83;32.56;100286.44;4963126;28;20042;-88
2023/06/27 12:44:19;;;;;;;8.20;3.72;;;;;;;32.96;32.30;100278.53;4977671;28;20506;-87
2023/06/27 12:47:11;;;;;;;14.48;3.95;;;;;;;32.99;31.31;100272.72;4965763;28;20050;-87
2023/06/27 12:50:05;;;;;;;9.82;4.07;;;;;;;32.93;31.75;100271.81;4972613;28;20598;-88
2023/06/27 12:53:00;;;;;;;8.25;4.15;;;;;;;32.89;31.18;100261.97;4982613;28;20053;-88
2023/06/27 12:55:52;;;;;;;;;;;;;;;32.95;31.50;100258.03;4999354;28;20056;-88
2023/06/27 12:58:41;;;;;;;12.82;4.30;;;;;;;32.76;31.26;100250.19;4975941;28;19921;-88
2023/06/27 13:01:44;;;;;;;9.70;4.07;;;;;;;32.72;32.18;100252.38;5008116;28;20038;-88
2023/06/27 13:04:36;;;;;;;12.98;3.83;;;;;;;32.75;31.23;100246.59;5013908;28;20064;-88
2023/06/27 13:07:28;;;;;;;7.35;3.55;;;;;;;32.79;31.87;100247.19;5013010;28;20350;-87
2023/06/27 13:10:22;;;;;;;20.00;4.38;;;;;;;32.72;32.74;100244.72;5023826;28;20110;-87
2023/06/27 13:13:17;;;;;;;9.77;3.67;;;;;;;32.67;32.54;100242.53;5009160;28;20053;-87
2023/06/27 13:16:11;;;;;;;23.60;4.82;;;;;;;32.71;32.47;100231.91;5019657;28;20113;-87
2023/06/27 13:19:07;;;;;;;18.98;4.45;;;;;;;32.65;32.26;100228.97;5015904;28;20057;-87
2023/06/27 13:22:01;;;;;;;11.23;4.32;;;;;;;32.52;33.97;100222.75;4987937;28;20034;-86
2023/06/27 13:24:56;;;;;;;9.02;3.65;;;;;;;32.55;33.67;100224.63;4986718;28;20045;-87
2023/06/27 13:27:51;;;;;;;8.73;3.80;;;;;;;32.59;32.56;100210.34;4972655;28;20050;-85
2023/06/27 13:30:46;;;;;;;7.47;4.30;;;;;;;32.57;33.86;100219.25;4975491;28;20045;-85
2023/06/27 13:33:40;;;;;;;8.80;4.03;;;;;;;32.57;34.16;100205.19;4979140;28;20049;-87
2023/06/27 13:36:35;;;;;;;9.55;4.57;;;;;;;32.66;33.24;100204.41;4987490;28;20053;-87
2023/06/27 13:39:30;;;;;;;9.38;4.60;;;;;;;32.69;32.76;100189.34;4984860;28;20057;-88